createdAt,value
2019-04-05T00:00:29.158Z,47.15
2019-04-05T00:02:59.910Z,43.78
2019-04-05T00:05:30.726Z,45.85
2019-04-05T00:08:01.711Z,46.73
2019-04-05T00:10:32.875Z,47.70
2019-04-05T00:13:03.789Z,44.93
2019-04-05T00:15:34.575Z,49.95
2019-04-05T00:18:05.443Z,45.92
2019-04-05T00:20:36.397Z,47.90
2019-04-05T00:23:07.378Z,44.00
2019-04-05T00:25:38.318Z,47.88
2019-04-05T00:28:09.050Z,46.00
2019-04-05T00:30:39.776Z,45.43
2019-04-05T00:33:10.691Z,46.60
2019-04-05T00:35:41.568Z,45.63
2019-04-05T00:38:12.525Z,48.68
2019-04-05T00:40:44.553Z,45.98
2019-04-05T00:43:15.523Z,43.05
2019-04-05T00:45:46.635Z,45.10
2019-04-05T00:48:17.520Z,47.60
2019-04-05T00:50:48.383Z,44.50
2019-04-05T00:53:19.119Z,52.30
2019-04-05T00:55:51.439Z,46.88
2019-04-05T00:58:22.317Z,44.40
2019-04-05T01:00:53.285Z,46.10
2019-04-05T01:03:24.314Z,53.20
2019-04-05T01:05:55.079Z,43.20
2019-04-05T01:08:25.936Z,44.03
2019-04-05T01:10:56.903Z,48.33
2019-04-05T01:13:28.536Z,50.25
2019-04-05T01:15:59.505Z,44.10
2019-04-05T01:18:30.553Z,46.33
2019-04-05T01:21:04.372Z,42.15
2019-04-05T01:23:36.812Z,46.88
2019-04-05T01:26:08.853Z,45.38
2019-04-05T01:28:39.958Z,44.10
2019-04-05T01:31:10.857Z,44.45
2019-04-05T01:33:41.901Z,42.43
2019-04-05T01:36:12.723Z,45.25
2019-04-05T01:38:43.690Z,39.50
2019-04-05T01:41:15.274Z,41.00
2019-04-05T01:43:46.317Z,39.48
2019-04-05T01:46:17.302Z,39.70
2019-04-05T01:48:48.089Z,43.95
2019-04-05T01:51:18.994Z,38.90
2019-04-05T01:53:50.421Z,43.17
2019-04-05T01:56:21.799Z,39.80
2019-04-05T01:58:52.768Z,40.50
2019-04-05T02:01:25.720Z,41.75
2019-04-05T02:03:56.624Z,43.58
2019-04-05T02:06:27.855Z,44.20
2019-04-05T02:08:58.881Z,42.05
2019-04-05T02:11:30.926Z,39.03
2019-04-05T02:14:02.986Z,38.50
2019-04-05T02:16:34.001Z,38.15
2019-04-05T02:19:05.372Z,36.68
2019-04-05T02:21:36.536Z,40.70
2019-04-05T02:24:07.660Z,36.58
2019-04-05T02:26:38.886Z,38.08
2019-04-05T02:29:09.835Z,35.63
2019-04-05T02:31:40.814Z,37.25
2019-04-05T02:34:11.788Z,35.33
2019-04-05T02:36:42.853Z,35.73
2019-04-05T02:39:13.906Z,35.43
2019-04-05T02:41:45.323Z,33.20
2019-04-05T02:44:16.858Z,35.65
2019-04-05T02:46:48.247Z,33.08
2019-04-05T02:49:20.910Z,35.23
2019-04-05T02:51:53.263Z,31.95
2019-04-05T02:54:26.340Z,35.98
2019-04-05T02:56:57.925Z,43.23
2019-04-05T02:59:29.920Z,33.42
2019-04-05T03:02:01.195Z,30.97
2019-04-05T03:04:32.652Z,27.77
2019-04-05T03:07:03.621Z,28.85
2019-04-05T03:09:34.783Z,31.37
2019-04-05T03:12:07.253Z,35.70
2019-04-05T03:14:40.453Z,31.30
2019-04-05T03:17:12.945Z,31.30
2019-04-05T03:19:45.617Z,29.23
2019-04-05T03:22:17.470Z,30.82
2019-04-05T03:24:49.166Z,28.85
2019-04-05T03:27:22.623Z,28.65
2019-04-05T03:29:54.248Z,26.75
2019-04-05T03:32:25.687Z,26.65
2019-04-05T03:34:57.229Z,30.77
2019-04-05T03:37:28.434Z,29.07
2019-04-05T03:40:00.442Z,27.82
2019-04-05T03:42:32.604Z,22.82
2019-04-05T03:45:04.083Z,24.47
2019-04-05T03:47:35.090Z,26.15
2019-04-05T03:50:10.263Z,20.35
2019-04-05T03:52:45.508Z,22.45
2019-04-05T03:55:16.870Z,21.87
2019-04-05T03:57:48.442Z,19.67
2019-04-05T04:00:19.440Z,23.15
2019-04-05T04:02:56.956Z,21.42
2019-04-05T04:05:27.897Z,22.52
2019-04-05T04:07:59.005Z,20.10
2019-04-05T04:10:30.862Z,19.15
2019-04-05T04:13:02.336Z,20.37
2019-04-05T04:15:34.412Z,28.30
2019-04-05T04:18:06.683Z,27.32
2019-04-05T04:20:38.655Z,28.83
2019-04-05T04:23:10.921Z,21.37
2019-04-05T04:25:42.434Z,25.72
2019-04-05T04:28:13.561Z,22.52
2019-04-05T04:30:44.405Z,23.12
2019-04-05T04:33:15.556Z,19.42
2019-04-05T04:35:46.592Z,21.25
2019-04-05T04:38:17.684Z,21.75
2019-04-05T04:40:49.074Z,22.00
2019-04-05T04:43:20.029Z,19.80
2019-04-05T04:45:50.763Z,20.00
2019-04-05T04:48:22.130Z,21.05
2019-04-05T04:50:53.504Z,23.05
2019-04-05T04:53:24.358Z,20.68
2019-04-05T04:55:55.603Z,22.17
2019-04-05T04:58:26.824Z,20.27
2019-04-05T05:00:57.992Z,21.12
2019-04-05T05:03:29.165Z,21.73
2019-04-05T05:06:00.834Z,22.95
2019-04-05T05:08:32.019Z,20.72
2019-04-05T05:11:14.015Z,22.58
2019-04-05T05:13:36.321Z,20.88
2019-04-05T05:16:10.656Z,21.82
2019-04-05T05:18:43.002Z,19.60
2019-04-05T05:21:21.811Z,22.82
2019-04-05T05:23:54.404Z,20.72
2019-04-05T05:26:33.256Z,25.88
2019-04-05T05:29:07.960Z,19.80
2019-04-05T05:31:40.347Z,23.45
2019-04-05T05:34:12.013Z,23.35
2019-04-05T05:36:43.651Z,20.23
2019-04-05T05:39:14.571Z,21.57
2019-04-05T05:41:48.205Z,20.97
2019-04-05T05:44:19.444Z,23.45
2019-04-05T05:46:50.403Z,19.10
2019-04-05T05:49:24.158Z,34.25
2019-04-05T05:51:55.572Z,28.27
2019-04-05T05:54:26.292Z,20.02
2019-04-05T05:56:56.911Z,19.80
2019-04-05T05:59:30.034Z,21.05
2019-04-05T06:02:00.154Z,22.45
2019-04-05T06:04:31.112Z,20.68
2019-04-05T06:07:02.101Z,20.82
2019-04-05T06:09:32.902Z,23.52
2019-04-05T06:12:03.949Z,18.55
2019-04-05T06:14:34.924Z,20.02
2019-04-05T06:17:06.029Z,20.43
2019-04-05T06:19:36.949Z,22.37
2019-04-05T06:22:07.907Z,24.30
2019-04-05T06:24:38.819Z,20.10
2019-04-05T06:27:09.611Z,18.48
2019-04-05T06:29:40.499Z,19.17
2019-04-05T06:32:11.425Z,31.33
2019-04-05T06:34:42.384Z,28.85
2019-04-05T06:37:13.250Z,25.00
2019-04-05T06:39:44.096Z,26.87
2019-04-05T06:42:15.089Z,44.08
2019-04-05T06:44:46.925Z,48.73
2019-04-05T06:47:18.524Z,28.98
2019-04-05T06:49:49.448Z,20.00
2019-04-05T06:52:20.948Z,20.60
2019-04-05T06:54:51.751Z,19.60
2019-04-05T06:57:22.683Z,22.00
2019-04-05T06:59:53.744Z,18.92
2019-04-05T07:02:24.627Z,21.12
2019-04-05T07:04:55.344Z,20.40
2019-04-05T07:07:26.337Z,21.80
2019-04-05T07:09:57.558Z,23.92
2019-04-05T07:12:29.180Z,19.15
2019-04-05T07:15:00.009Z,22.30
2019-04-05T07:17:33.756Z,22.67
2019-04-05T07:23:22.173Z,25.77
2019-04-05T07:25:55.105Z,24.92
2019-04-05T07:28:26.203Z,25.57
2019-04-05T07:30:57.228Z,25.88
2019-04-05T07:33:27.938Z,23.02
2019-04-05T07:35:59.712Z,29.18
2019-04-05T07:38:32.155Z,27.13
2019-04-05T07:41:07.773Z,28.50
2019-04-05T07:43:38.471Z,25.75
2019-04-05T07:46:09.446Z,25.17
2019-04-05T07:48:45.138Z,26.37
2019-04-05T07:51:13.282Z,24.07
2019-04-05T07:53:44.472Z,19.42
2019-04-05T07:56:15.410Z,28.90
2019-04-05T07:58:46.200Z,22.58
2019-04-05T08:01:17.190Z,22.45
2019-04-05T08:03:48.338Z,21.10
2019-04-05T08:06:22.244Z,22.02
2019-04-05T08:08:55.655Z,23.57
2019-04-05T08:11:28.301Z,22.52
2019-04-05T08:14:02.141Z,24.85
2019-04-05T08:16:33.269Z,26.10
2019-04-05T08:19:04.353Z,22.40
2019-04-05T08:21:35.075Z,20.90
2019-04-05T08:24:06.811Z,21.52
2019-04-05T08:26:38.233Z,27.52
2019-04-05T08:29:10.160Z,25.90
2019-04-05T08:31:42.094Z,26.93
2019-04-05T08:34:13.083Z,26.35
2019-04-05T08:36:44.567Z,28.05
2019-04-05T08:39:15.440Z,26.35
2019-04-05T08:41:46.645Z,28.32
2019-04-05T08:44:17.568Z,27.80
2019-04-05T08:46:49.317Z,30.70
2019-04-05T08:49:22.617Z,29.98
2019-04-05T08:51:54.502Z,27.15
2019-04-05T08:54:32.420Z,31.85
2019-04-05T08:57:06.923Z,27.10
2019-04-05T08:59:41.276Z,27.85
2019-04-05T09:02:14.332Z,27.02
2019-04-05T09:04:45.265Z,30.77
2019-04-05T09:07:16.241Z,24.50
2019-04-05T09:09:47.034Z,28.42
2019-04-05T09:12:18.043Z,33.20
2019-04-05T09:14:50.021Z,30.92
2019-04-05T09:17:21.195Z,33.75
2019-04-05T09:19:55.037Z,33.38
2019-04-05T09:22:25.755Z,28.77
2019-04-05T09:24:56.730Z,28.02
2019-04-05T09:27:27.612Z,28.47
2019-04-05T09:29:58.959Z,30.97
2019-04-05T09:32:30.015Z,36.48
2019-04-05T09:35:00.810Z,41.80
2019-04-05T09:37:31.897Z,36.50
2019-04-05T09:40:02.593Z,37.38
2019-04-05T09:42:33.419Z,32.85
2019-04-05T09:45:05.438Z,34.23
2019-04-05T09:47:36.332Z,29.80
2019-04-05T09:50:09.861Z,17.82
2019-04-05T09:52:41.238Z,17.00
2019-04-05T09:57:47.938Z,17.23
2019-04-05T10:00:21.563Z,17.90
2019-04-05T10:02:52.419Z,20.57
2019-04-05T10:05:23.335Z,17.73
2019-04-05T10:07:55.198Z,19.55
2019-04-05T10:10:26.119Z,15.75
2019-04-05T10:12:57.667Z,20.30
2019-04-05T10:15:28.513Z,19.02
2019-04-05T10:17:59.451Z,15.65
2019-04-05T10:20:30.199Z,14.58
2019-04-05T10:23:01.064Z,15.23
2019-04-05T10:25:32.007Z,15.78
2019-04-05T10:28:02.632Z,20.97
2019-04-05T10:30:33.618Z,19.50
2019-04-05T10:33:04.668Z,11.88
2019-04-05T10:35:35.401Z,15.38
2019-04-05T10:38:06.216Z,15.63
2019-04-05T10:40:37.364Z,27.87
2019-04-05T10:43:08.869Z,20.90
2019-04-05T10:45:39.843Z,19.90
2019-04-05T10:48:10.533Z,17.65
2019-04-05T10:50:41.350Z,22.05
2019-04-05T10:53:12.171Z,21.45
2019-04-05T10:55:43.063Z,21.23
2019-04-05T10:58:13.932Z,22.48
2019-04-05T11:00:44.883Z,23.40
2019-04-05T11:03:15.811Z,25.77
2019-04-05T11:05:49.097Z,18.70
2019-04-05T11:08:18.561Z,16.60
2019-04-05T11:10:49.427Z,15.40
2019-04-05T11:13:19.923Z,18.42
2019-04-05T11:15:51.053Z,16.75
2019-04-05T11:18:21.938Z,16.45
2019-04-05T11:20:52.795Z,14.78
2019-04-05T11:23:23.576Z,14.13
2019-04-05T11:25:54.539Z,16.40
2019-04-05T11:28:25.597Z,14.13
2019-04-05T11:30:56.157Z,12.18
2019-04-05T11:33:27.113Z,15.45
2019-04-05T11:35:58.107Z,14.38
2019-04-05T11:38:29.589Z,16.35
2019-04-05T11:41:00.876Z,14.55
2019-04-05T11:43:33.719Z,14.63
2019-04-05T11:46:04.981Z,14.03
2019-04-05T11:48:36.884Z,15.08
2019-04-05T11:51:07.850Z,16.67
2019-04-05T11:53:38.635Z,13.48
2019-04-05T11:56:14.967Z,16.37
2019-04-05T11:58:43.219Z,27.07
2019-04-05T12:01:15.358Z,18.20
2019-04-05T12:03:46.042Z,18.20
2019-04-05T12:06:16.980Z,17.12
2019-04-05T12:08:47.980Z,14.30
2019-04-05T12:11:18.669Z,25.72
2019-04-05T12:13:49.620Z,22.98
2019-04-05T12:16:20.301Z,19.32
2019-04-05T12:18:51.222Z,17.12
2019-04-05T12:21:22.283Z,17.70
2019-04-05T12:23:53.112Z,14.30
2019-04-05T12:26:23.958Z,18.30
2019-04-05T12:28:54.817Z,16.07
2019-04-05T12:31:26.887Z,14.00
2019-04-05T12:33:57.657Z,18.10
2019-04-05T12:36:28.598Z,16.15
2019-04-05T12:38:59.574Z,18.45
2019-04-05T12:41:31.815Z,19.32
2019-04-05T12:44:02.890Z,18.67
2019-04-05T12:46:33.845Z,23.90
2019-04-05T12:49:04.632Z,17.20
2019-04-05T12:51:35.632Z,24.77
2019-04-05T12:54:06.674Z,21.12
2019-04-05T12:56:37.640Z,22.27
2019-04-05T12:59:08.561Z,20.10
2019-04-05T13:01:39.434Z,20.92
2019-04-05T13:04:10.223Z,24.05
2019-04-05T13:06:42.392Z,24.67
2019-04-05T13:09:14.410Z,21.75
2019-04-05T13:11:45.257Z,26.27
2019-04-05T13:14:16.053Z,26.93
2019-04-05T13:16:49.435Z,31.20
2019-04-05T13:19:19.404Z,23.22
2019-04-05T13:21:50.221Z,22.82
2019-04-05T13:24:21.147Z,24.95
2019-04-05T13:26:51.828Z,26.20
2019-04-05T13:29:22.802Z,22.30
2019-04-05T13:31:54.487Z,34.18
2019-04-05T13:34:26.016Z,23.75
2019-04-05T13:36:59.222Z,22.50
2019-04-05T13:39:29.739Z,19.92
2019-04-05T13:42:01.769Z,24.72
2019-04-05T13:44:33.389Z,27.85
2019-04-05T13:47:04.231Z,27.27
2019-04-05T13:49:35.008Z,26.90
2019-04-05T13:52:06.764Z,23.80
2019-04-05T13:54:38.367Z,24.70
2019-04-05T13:57:11.399Z,23.90
2019-04-05T13:59:44.587Z,19.73
2019-04-05T14:02:14.357Z,19.60
2019-04-05T14:04:45.159Z,24.92
2019-04-05T14:07:15.867Z,27.77
2019-04-05T14:09:46.769Z,18.50
2019-04-05T14:12:17.391Z,18.90
2019-04-05T14:14:51.210Z,19.35
2019-04-05T14:17:20.489Z,16.85
2019-04-05T14:19:51.163Z,18.30
2019-04-05T14:22:22.530Z,18.27
2019-04-05T14:24:56.560Z,20.50
2019-04-05T14:27:26.187Z,20.50
2019-04-05T14:29:57.274Z,21.35
2019-04-05T14:32:28.216Z,23.60
2019-04-05T14:34:59.163Z,16.20
2019-04-05T14:37:30.040Z,20.40
2019-04-05T14:40:01.046Z,18.60
2019-04-05T14:42:32.225Z,19.20
2019-04-05T14:45:03.117Z,20.45
2019-04-05T14:47:34.154Z,19.67
2019-04-05T14:50:05.968Z,19.98
2019-04-05T14:52:36.738Z,22.42
2019-04-05T14:55:08.052Z,20.10
2019-04-05T14:57:41.773Z,23.18
2019-04-05T15:00:15.254Z,22.60
2019-04-05T15:02:46.073Z,24.75
2019-04-05T15:05:17.343Z,19.42
2019-04-05T15:07:50.662Z,22.80
2019-04-05T15:10:21.049Z,24.47
2019-04-05T15:12:51.965Z,21.55
2019-04-05T15:15:22.683Z,24.72
2019-04-05T15:17:53.530Z,22.65
2019-04-05T15:20:24.551Z,23.52
2019-04-05T15:22:55.414Z,23.15
2019-04-05T15:25:26.169Z,21.95
2019-04-05T15:27:57.916Z,23.85
2019-04-05T15:30:28.630Z,23.38
2019-04-05T15:33:00.676Z,23.00
2019-04-05T15:35:31.823Z,24.80
2019-04-05T15:38:02.993Z,23.50
2019-04-05T15:40:34.263Z,24.02
2019-04-05T15:43:04.991Z,21.82
2019-04-05T15:45:35.884Z,23.42
2019-04-05T15:48:06.796Z,23.05
2019-04-05T15:50:37.616Z,24.52
2019-04-05T15:53:08.428Z,24.95
2019-04-05T15:55:39.347Z,23.27
2019-04-05T15:58:10.138Z,25.25
2019-04-05T16:00:43.180Z,31.27
2019-04-05T16:03:15.265Z,35.33
2019-04-05T16:05:47.420Z,24.90
2019-04-05T16:08:19.937Z,24.63
2019-04-05T16:10:50.895Z,27.30
2019-04-05T16:13:21.770Z,29.85
2019-04-05T16:15:52.871Z,27.35
2019-04-05T16:18:23.737Z,28.45
2019-04-05T16:20:54.576Z,27.30
2019-04-05T16:23:25.446Z,25.72
2019-04-05T16:25:56.302Z,25.57
2019-04-05T16:28:27.449Z,35.28
2019-04-05T16:30:58.130Z,24.92
2019-04-05T16:33:29.004Z,24.27
2019-04-05T16:35:59.889Z,28.90
2019-04-05T16:38:30.769Z,25.75
2019-04-05T16:41:01.677Z,25.50
2019-04-05T16:43:32.582Z,27.32
2019-04-05T16:46:03.278Z,28.67
2019-04-05T16:48:34.276Z,23.45
2019-04-05T16:51:05.109Z,25.30
2019-04-05T16:53:36.032Z,30.10
2019-04-05T16:56:07.045Z,28.55
2019-04-05T16:58:38.113Z,25.97
2019-04-05T17:01:08.789Z,24.77
2019-04-05T17:03:39.759Z,26.23
2019-04-05T17:06:10.509Z,30.02
2019-04-05T17:08:41.549Z,25.88
2019-04-05T17:11:12.419Z,24.25
2019-04-05T17:13:43.382Z,24.90
2019-04-05T17:16:14.520Z,25.75
2019-04-05T17:18:45.462Z,31.82
2019-04-05T17:21:16.394Z,25.25
2019-04-05T17:23:47.334Z,26.97
2019-04-05T17:26:17.867Z,24.95
2019-04-05T17:28:48.598Z,29.98
2019-04-05T17:31:19.510Z,24.25
2019-04-05T17:33:50.316Z,26.52
2019-04-05T17:36:21.167Z,27.27
2019-04-05T17:38:52.518Z,28.98
2019-04-05T17:41:23.426Z,26.82
2019-04-05T17:43:54.108Z,26.40
2019-04-05T17:46:26.940Z,29.23
2019-04-05T17:48:59.617Z,26.55
2019-04-05T17:51:30.915Z,28.42
2019-04-05T17:54:01.856Z,27.95
2019-04-05T17:56:33.411Z,27.67
2019-04-05T17:59:04.845Z,25.37
2019-04-05T18:01:38.551Z,25.02
2019-04-05T18:04:07.786Z,28.83
2019-04-05T18:06:38.657Z,24.82
2019-04-05T18:09:10.448Z,28.02
2019-04-05T18:11:41.194Z,30.17
2019-04-05T18:14:11.892Z,32.83
2019-04-05T18:16:42.834Z,29.00
2019-04-05T18:19:13.700Z,34.30
2019-04-05T18:21:44.715Z,32.33
2019-04-05T18:24:15.892Z,38.70
2019-04-05T18:26:46.803Z,31.02
2019-04-05T18:29:17.469Z,33.88
2019-04-05T18:31:48.614Z,32.40
2019-04-05T18:34:19.290Z,35.88
2019-04-05T18:36:50.698Z,35.03
2019-04-05T18:39:21.372Z,34.58
2019-04-05T18:41:52.323Z,31.87
2019-04-05T18:44:23.213Z,36.15
2019-04-05T18:46:54.017Z,41.50
2019-04-05T18:49:24.884Z,37.42
2019-04-05T18:51:55.768Z,38.33
2019-04-05T18:54:26.577Z,34.20
2019-04-05T18:56:57.797Z,35.25
2019-04-05T18:59:28.474Z,32.23
2019-04-05T19:01:59.251Z,36.05
2019-04-05T19:04:30.208Z,36.88
2019-04-05T19:07:01.125Z,37.28
2019-04-05T19:09:31.898Z,31.40
2019-04-05T19:12:02.658Z,36.88
2019-04-05T19:14:33.481Z,34.88
2019-04-05T19:17:04.308Z,38.00
2019-04-05T19:19:35.128Z,33.50
2019-04-05T19:22:06.053Z,35.75
2019-04-05T19:24:36.894Z,38.30
2019-04-05T19:27:07.668Z,41.13
2019-04-05T19:29:38.628Z,40.70
2019-04-05T19:49:55.748Z,34.80
2019-04-05T19:52:26.421Z,37.23
2019-04-05T19:54:57.326Z,38.53
2019-04-05T19:57:28.195Z,37.65
2019-04-05T19:59:58.798Z,37.10
2019-04-05T20:02:29.779Z,39.45
2019-04-05T20:05:00.618Z,31.95
2019-04-05T20:07:31.692Z,35.35
2019-04-05T20:10:02.529Z,36.33
2019-04-05T20:12:33.494Z,38.90
2019-04-05T20:15:04.248Z,37.78
2019-04-05T20:17:35.119Z,40.85
2019-04-05T20:20:08.214Z,51.50
2019-04-05T20:22:39.047Z,41.42
2019-04-05T20:25:10.090Z,76.53
2019-04-05T20:27:40.996Z,92.00
2019-04-05T20:30:11.942Z,100.82
2019-04-05T20:32:42.871Z,92.05
2019-04-05T20:35:13.862Z,96.55
2019-04-05T20:37:44.850Z,95.45
2019-04-05T20:40:15.764Z,87.55
2019-04-05T20:42:46.692Z,88.62
2019-04-05T20:45:17.620Z,93.33
2019-04-05T20:47:48.349Z,141.32
2019-04-05T20:50:19.292Z,146.40
2019-04-05T20:52:50.075Z,129.97
2019-04-05T20:55:20.905Z,136.77
2019-04-05T20:57:51.993Z,131.30
2019-04-05T21:00:22.862Z,107.27
2019-04-05T21:02:53.713Z,103.92
2019-04-05T21:05:25.534Z,99.40
2019-04-05T21:07:56.621Z,106.92
2019-04-05T21:10:27.414Z,120.20
2019-04-05T21:12:58.128Z,116.67
2019-04-05T21:15:28.831Z,132.03
2019-04-05T21:17:59.683Z,97.97
2019-04-05T21:20:30.375Z,66.97
2019-04-05T21:23:01.504Z,55.45
2019-04-05T21:25:32.441Z,53.78
2019-04-05T21:28:03.203Z,50.63
2019-04-05T21:30:34.031Z,48.92
2019-04-05T21:33:04.966Z,44.38
2019-04-05T21:35:35.732Z,47.00
2019-04-05T21:38:06.559Z,42.53
2019-04-05T21:40:37.357Z,56.58
2019-04-05T21:43:08.198Z,41.30
2019-04-05T21:45:39.588Z,48.63
2019-04-05T21:48:10.399Z,39.23
2019-04-05T21:50:41.202Z,45.40
2019-04-05T21:53:12.166Z,49.05
2019-04-05T21:55:42.820Z,45.12
2019-04-05T21:58:13.415Z,43.70
2019-04-05T22:00:45.521Z,50.67
2019-04-05T22:03:16.323Z,47.90
2019-04-05T22:05:47.517Z,43.02
2019-04-05T23:42:40.286Z,59.00
2019-04-05T23:45:11.397Z,54.35
2019-04-05T23:47:42.229Z,57.50
2019-04-05T23:50:13.453Z,57.55
2019-04-05T23:52:44.241Z,62.48
2019-04-05T23:55:15.099Z,58.23
2019-04-05T23:57:46.066Z,59.58
